Time,TemperatureF,DewpointF,PressureIn,WindDirection,WindDirectionDegrees,WindSpeedMPH,WindSpeedGustMPH,Humidity,HourlyPrecipIn,Conditions,Clouds,dailyrainin,SolarRadiationWatts/m^2,SoftwareType,DateUTC
2013-02-18 00:00:00,34.1,32.0,30.18,NE,38,0.0,0.0,92,0.00,BKN,,0.00,0.0,WeatherDisplay:10.37,2013-02-17 23:00:00,
2013-02-18 00:05:00,34.0,31.9,30.18,NE,38,0.0,0.0,92,0.00,BKN,,0.00,0.0,WeatherDisplay:10.37,2013-02-17 23:05:00,
2013-02-18 00:10:00,34.0,31.9,30.18,NE,38,0.0,0.0,92,0.00,BKN,,0.00,0.0,WeatherDisplay:10.37,2013-02-17 23:10:00,
2013-02-18 00:15:00,34.0,31.9,30.18,NE,38,0.0,0.0,92,0.00,BKN,,0.00,0.0,WeatherDisplay:10.37,2013-02-17 23:15:00,
2013-02-18 00:20:00,34.0,31.9,30.18,NE,38,0.0,0.0,92,0.00,BKN,,0.00,0.0,WeatherDisplay:10.37,2013-02-17 23:20:00,
2013-02-18 00:25:00,34.0,31.9,30.18,NE,38,0.0,0.0,92,0.00,BKN,,0.00,0.0,WeatherDisplay:10.37,2013-02-17 23:25:00,
2013-02-18 00:30:00,33.9,31.8,30.18,NE,38,0.1,1.0,92,0.00,BKN,,0.00,0.0,WeatherDisplay:10.37,2013-02-17 23:30:00,
2013-02-18 00:35:00,33.9,31.8,30.18,NE,38,0.0,1.1,92,0.00,BKN,,0.00,0.0,WeatherDisplay:10.37,2013-02-17 23:35:00,
2013-02-18 00:40:00,33.9,32.1,30.18,NE,38,1.2,2.0,93,0.00,BKN,,0.00,0.0,WeatherDisplay:10.37,2013-02-17 23:40:00,
2013-02-18 00:45:00,34.0,32.2,30.17,NE,38,0.2,2.3,93,0.00,BKN,,0.00,0.0,WeatherDisplay:10.37,2013-02-17 23:45:00,
2013-02-18 00:50:00,34.0,32.2,30.17,East,96,1.4,2.3,93,0.00,BKN,,0.00,0.0,WeatherDisplay:10.37,2013-02-17 23:50:00,
2013-02-18 00:55:00,34.0,31.9,30.17,East,101,0.5,1.1,92,0.00,BKN,,0.00,0.0,WeatherDisplay:10.37,2013-02-17 23:55:00,
2013-02-18 01:00:00,34.1,32.0,30.17,ESE,105,1.0,2.3,92,0.00,BKN,,0.00,0.0,WeatherDisplay:10.37,2013-02-18 00:00:00,
2013-02-18 01:05:00,34.0,31.9,30.17,SE,142,2.0,3.5,92,0.00,BKN,,0.00,0.0,WeatherDisplay:10.37,2013-02-18 00:05:00,
2013-02-18 01:10:00,34.1,32.0,30.17,SSE,151,0.3,3.5,92,0.00,BKN,,0.00,0.0,WeatherDisplay:10.37,2013-02-18 00:10:00,
2013-02-18 01:15:00,34.0,31.9,30.17,South,181,1.9,4.6,92,0.00,BKN,,0.00,0.0,WeatherDisplay:10.37,2013-02-18 00:15:00,
2013-02-18 01:20:00,34.0,31.9,30.17,SSE,167,2.2,3.5,92,0.00,BKN,,0.00,0.0,WeatherDisplay:10.37,2013-02-18 00:20:00,
2013-02-18 01:25:00,34.0,31.9,30.17,SE,146,0.7,3.5,92,0.00,BKN,,0.00,0.0,WeatherDisplay:10.37,2013-02-18 00:25:00,
2013-02-18 01:31:00,33.9,31.8,30.16,SSE,148,2.2,5.0,92,0.00,BKN,,0.00,0.0,WeatherDisplay:10.37,2013-02-18 00:31:00,
2013-02-18 01:36:00,33.8,31.5,30.16,SSE,156,2.0,4.6,91,0.00,BKN,,0.00,0.0,WeatherDisplay:10.37,2013-02-18 00:36:00,
2013-02-18 01:41:00,33.8,31.5,30.16,SSE,152,3.4,4.0,91,0.00,BKN,,0.00,0.0,WeatherDisplay:10.37,2013-02-18 00:41:00,
2013-02-18 01:46:00,33.8,31.5,30.16,SSE,150,0.6,2.3,91,0.00,BKN,,0.00,0.0,WeatherDisplay:10.37,2013-02-18 00:46:00,
2013-02-18 01:51:00,33.7,31.4,30.16,South,177,2.3,3.5,91,0.00,BKN,,0.00,0.0,WeatherDisplay:10.37,2013-02-18 00:51:00,
2013-02-18 01:56:00,33.7,31.4,30.16,SSE,165,2.1,4.0,91,0.00,BKN,,0.00,0.0,WeatherDisplay:10.37,2013-02-18 00:56:00,
2013-02-18 02:01:00,33.7,31.4,30.16,South,174,0.4,2.3,91,0.00,BKN,,0.00,0.0,WeatherDisplay:10.37,2013-02-18 01:01:00,
2013-02-18 02:06:00,33.7,31.4,30.16,SSE,166,1.4,3.5,91,0.00,BKN,,0.00,0.0,WeatherDisplay:10.37,2013-02-18 01:06:00,
2013-02-18 02:11:00,33.6,31.3,30.16,South,175,1.1,2.3,91,0.00,BKN,,0.00,0.0,WeatherDisplay:10.37,2013-02-18 01:11:00,
2013-02-18 02:16:00,33.6,31.3,30.16,South,175,1.1,3.5,91,0.00,BKN,,0.00,0.0,WeatherDisplay:10.37,2013-02-18 01:16:00,
2013-02-18 02:21:00,33.6,31.0,30.16,South,175,0.0,2.3,90,0.00,BKN,,0.00,0.0,WeatherDisplay:10.37,2013-02-18 01:21:00,
2013-02-18 02:26:00,33.6,31.0,30.15,South,175,0.2,1.1,90,0.00,BKN,,0.00,0.0,WeatherDisplay:10.37,2013-02-18 01:26:00,
2013-02-18 02:31:00,33.6,31.0,30.15,SSE,149,2.2,3.5,90,0.00,BKN,,0.00,0.0,WeatherDisplay:10.37,2013-02-18 01:31:00,
2013-02-18 02:36:00,33.6,31.0,30.15,SE,140,1.6,3.5,90,0.00,BKN,,0.00,0.0,WeatherDisplay:10.37,2013-02-18 01:36:00,
2013-02-18 02:41:00,33.6,31.0,30.15,SE,138,0.1,1.1,90,0.00,BKN,,0.00,0.0,WeatherDisplay:10.37,2013-02-18 01:41:00,
2013-02-18 02:46:00,33.6,31.0,30.15,SE,138,0.0,0.0,90,0.00,BKN,,0.00,0.0,WeatherDisplay:10.37,2013-02-18 01:46:00,
2013-02-18 02:51:00,33.6,31.0,30.15,SE,138,0.0,0.0,90,0.00,BKN,,0.00,0.0,WeatherDisplay:10.37,2013-02-18 01:51:00,
2013-02-18 02:56:00,33.6,31.0,30.15,SE,138,0.8,2.3,90,0.00,BKN,,0.00,0.0,WeatherDisplay:10.37,2013-02-18 01:56:00,
2013-02-18 03:01:00,33.6,31.0,30.15,SE,138,0.2,3.5,90,0.00,BKN,,0.00,0.0,WeatherDisplay:10.37,2013-02-18 02:01:00,
2013-02-18 03:06:00,33.6,31.0,30.15,SE,138,0.0,0.0,90,0.00,BKN,,0.00,0.0,WeatherDisplay:10.37,2013-02-18 02:06:00,
2013-02-18 03:11:00,33.6,31.0,30.15,SE,138,0.6,2.0,90,0.00,BKN,,0.00,0.0,WeatherDisplay:10.37,2013-02-18 02:11:00,
2013-02-18 03:16:00,33.6,31.0,30.15,SE,138,1.2,2.0,90,0.00,BKN,,0.00,0.0,WeatherDisplay:10.37,2013-02-18 02:16:00,
2013-02-18 03:21:00,33.6,31.0,30.15,SE,138,0.0,1.1,90,0.00,BKN,,0.00,0.0,WeatherDisplay:10.37,2013-02-18 02:21:00,
2013-02-18 03:26:00,33.6,31.0,30.15,SE,138,0.9,3.5,90,0.00,BKN,,0.00,0.0,WeatherDisplay:10.37,2013-02-18 02:26:00,
2013-02-18 03:31:00,33.5,30.9,30.15,SSE,153,1.8,3.5,90,0.00,BKN,,0.00,0.0,WeatherDisplay:10.37,2013-02-18 02:31:00,
2013-02-18 03:36:00,33.5,30.6,30.15,South,169,1.9,3.0,89,0.00,BKN,,0.00,0.0,WeatherDisplay:10.37,2013-02-18 02:36:00,
2013-02-18 03:41:00,33.5,30.6,30.15,SSE,158,2.7,4.0,89,0.00,BKN,,0.00,0.0,WeatherDisplay:10.37,2013-02-18 02:41:00,
2013-02-18 03:46:00,33.4,30.5,30.15,SSE,155,2.0,4.0,89,0.00,BKN,,0.00,0.0,WeatherDisplay:10.37,2013-02-18 02:46:00,
2013-02-18 03:51:00,33.4,30.5,30.15,SE,132,2.6,4.0,89,0.00,BKN,,0.00,0.0,WeatherDisplay:10.37,2013-02-18 02:51:00,
2013-02-18 03:56:00,33.3,30.4,30.15,SE,142,0.8,3.5,89,0.00,BKN,,0.00,0.0,WeatherDisplay:10.37,2013-02-18 02:56:00,
2013-02-18 04:01:00,33.3,30.4,30.15,SSE,153,0.0,0.0,89,0.00,BKN,,0.00,0.0,WeatherDisplay:10.37,2013-02-18 03:01:00,
2013-02-18 04:06:00,33.3,30.4,30.15,SSE,153,0.8,2.0,89,0.00,BKN,,0.00,0.0,WeatherDisplay:10.37,2013-02-18 03:06:00,
2013-02-18 04:11:00,33.3,30.4,30.15,SSE,154,2.3,3.5,89,0.00,BKN,,0.00,0.0,WeatherDisplay:10.37,2013-02-18 03:11:00,
2013-02-18 04:16:00,33.3,30.4,30.15,SE,128,1.0,3.5,89,0.00,BKN,,0.00,0.0,WeatherDisplay:10.37,2013-02-18 03:16:00,
2013-02-18 04:21:00,33.2,30.0,30.14,South,170,0.8,3.5,88,0.00,BKN,,0.00,0.0,WeatherDisplay:10.37,2013-02-18 03:21:00,
2013-02-18 04:26:00,33.2,30.0,30.15,South,180,2.2,3.5,88,0.00,BKN,,0.00,0.0,WeatherDisplay:10.37,2013-02-18 03:26:00,
2013-02-18 04:31:00,33.1,29.9,30.15,SSE,148,0.3,3.5,88,0.00,BKN,,0.00,0.0,WeatherDisplay:10.37,2013-02-18 03:31:00,
2013-02-18 04:36:00,33.1,29.9,30.15,South,178,2.6,4.0,88,0.00,BKN,,0.00,0.0,WeatherDisplay:10.37,2013-02-18 03:36:00,
2013-02-18 04:41:00,33.1,29.9,30.15,SE,138,1.4,3.5,88,0.00,BKN,,0.00,0.0,WeatherDisplay:10.37,2013-02-18 03:41:00,
2013-02-18 04:46:00,33.1,29.9,30.15,SSE,155,0.6,2.3,88,0.00,BKN,,0.00,0.0,WeatherDisplay:10.37,2013-02-18 03:46:00,
2013-02-18 04:51:00,33.0,29.8,30.15,SSE,155,0.0,0.0,88,0.00,BKN,,0.00,0.0,WeatherDisplay:10.37,2013-02-18 03:51:00,
2013-02-18 04:56:00,33.0,29.8,30.15,SSE,155,0.0,0.0,88,0.00,BKN,,0.00,0.0,WeatherDisplay:10.37,2013-02-18 03:56:00,
2013-02-18 05:01:00,33.0,29.8,30.15,SSE,155,0.1,1.0,88,0.00,BKN,,0.00,0.0,WeatherDisplay:10.37,2013-02-18 04:01:00,
2013-02-18 05:06:00,33.0,29.8,30.15,SSE,165,0.0,0.0,88,0.00,BKN,,0.00,0.0,WeatherDisplay:10.37,2013-02-18 04:06:00,
2013-02-18 05:11:00,33.0,29.8,30.15,SSW,194,2.1,3.5,88,0.00,BKN,,0.00,0.0,WeatherDisplay:10.37,2013-02-18 04:11:00,
2013-02-18 05:16:00,33.0,29.6,30.15,South,184,0.4,2.3,87,0.00,BKN,,0.00,0.0,WeatherDisplay:10.37,2013-02-18 04:16:00,
2013-02-18 05:21:00,33.0,29.6,30.15,South,184,0.2,2.3,87,0.00,BKN,,0.00,0.0,WeatherDisplay:10.37,2013-02-18 04:21:00,
2013-02-18 05:26:00,33.0,29.6,30.15,South,181,1.2,3.5,87,0.00,BKN,,0.00,0.0,WeatherDisplay:10.37,2013-02-18 04:26:00,
2013-02-18 05:31:00,32.9,29.5,30.15,South,180,0.9,3.0,87,0.00,BKN,,0.00,0.0,WeatherDisplay:10.37,2013-02-18 04:31:00,
2013-02-18 05:36:00,32.9,29.5,30.15,South,175,0.8,3.5,87,0.00,BKN,,0.00,0.0,WeatherDisplay:10.37,2013-02-18 04:36:00,
2013-02-18 05:41:00,32.9,29.5,30.15,SSE,168,1.2,3.5,87,0.00,BKN,,0.00,0.0,WeatherDisplay:10.37,2013-02-18 04:41:00,
2013-02-18 05:46:00,32.9,29.5,30.15,South,169,2.7,5.0,87,0.00,BKN,,0.00,0.0,WeatherDisplay:10.37,2013-02-18 04:46:00,
2013-02-18 05:51:00,32.8,29.4,30.15,SSE,157,2.9,4.6,87,0.00,BKN,,0.00,0.0,WeatherDisplay:10.37,2013-02-18 04:51:00,
2013-02-18 05:56:00,32.8,29.4,30.15,SSE,161,2.0,4.6,87,0.00,BKN,,0.00,0.0,WeatherDisplay:10.37,2013-02-18 04:56:00,
2013-02-18 06:00:00,32.8,29.4,30.15,SSE,159,1.0,5.0,87,0.00,BKN,,0.00,0.0,WeatherDisplay:10.37,2013-02-18 05:00:00,
2013-02-18 06:02:00,32.8,29.4,30.15,SSE,148,1.9,3.5,87,0.00,BKN,,0.00,0.0,WeatherDisplay:10.37,2013-02-18 05:02:00,
2013-02-18 06:07:00,32.8,29.4,30.15,SSE,164,0.7,2.3,87,0.00,BKN,,0.00,0.0,WeatherDisplay:10.37,2013-02-18 05:07:00,
2013-02-18 06:12:00,32.8,29.4,30.15,SSE,161,1.9,3.5,87,0.00,BKN,,0.00,0.0,WeatherDisplay:10.37,2013-02-18 05:12:00,
2013-02-18 06:17:00,32.7,29.3,30.15,SSE,165,1.2,3.5,87,0.00,BKN,,0.00,0.0,WeatherDisplay:10.37,2013-02-18 05:17:00,
2013-02-18 06:22:00,32.7,29.3,30.15,South,184,1.6,3.5,87,0.00,BKN,,0.00,0.0,WeatherDisplay:10.37,2013-02-18 05:22:00,
2013-02-18 06:27:00,32.6,29.2,30.15,SSE,164,0.6,3.5,87,0.00,BKN,,0.00,0.0,WeatherDisplay:10.37,2013-02-18 05:27:00,
2013-02-18 06:30:00,32.6,29.2,30.15,SSE,168,0.0,3.0,87,0.00,BKN,,0.00,0.0,WeatherDisplay:10.37,2013-02-18 05:30:00,
2013-02-18 06:35:00,32.6,29.2,30.15,SE,144,1.7,3.0,87,0.00,BKN,,0.00,0.0,WeatherDisplay:10.37,2013-02-18 05:35:00,
2013-02-18 06:40:00,32.5,29.1,30.15,SSE,165,2.5,3.5,87,0.00,BKN,,0.00,0.0,WeatherDisplay:10.37,2013-02-18 05:40:00,
2013-02-18 06:45:00,32.5,29.1,30.15,SSE,154,2.5,4.0,87,0.00,BKN,,0.00,0.0,WeatherDisplay:10.37,2013-02-18 05:45:00,
2013-02-18 06:50:00,32.5,29.1,30.15,SSE,163,2.0,3.5,87,0.00,BKN,,0.00,0.0,WeatherDisplay:10.37,2013-02-18 05:50:00,
2013-02-18 06:55:00,32.5,29.1,30.15,South,172,3.5,5.0,87,0.00,BKN,,0.00,0.0,WeatherDisplay:10.37,2013-02-18 05:55:00,
2013-02-18 07:00:00,32.4,28.7,30.16,SSE,162,4.2,6.0,86,0.00,BKN,,0.00,0.0,WeatherDisplay:10.37,2013-02-18 06:00:00,
2013-02-18 07:05:00,32.4,28.7,30.16,SSE,157,2.9,5.0,86,0.00,BKN,,0.00,0.0,WeatherDisplay:10.37,2013-02-18 06:05:00,
2013-02-18 07:10:00,32.4,28.7,30.16,SSE,159,3.0,5.0,86,0.00,BKN,,0.00,5.0,WeatherDisplay:10.37,2013-02-18 06:10:00,
2013-02-18 07:15:00,32.3,28.6,30.16,South,183,2.4,4.0,86,0.00,BKN,,0.00,5.0,WeatherDisplay:10.37,2013-02-18 06:15:00,
2013-02-18 07:20:00,32.3,28.6,30.16,SSE,165,1.1,3.5,86,0.00,BKN,,0.00,7.0,WeatherDisplay:10.37,2013-02-18 06:20:00,
2013-02-18 07:25:00,32.3,28.6,30.16,SE,133,3.3,5.0,86,0.00,BKN,,0.00,7.0,WeatherDisplay:10.37,2013-02-18 06:25:00,
2013-02-18 07:30:00,32.3,28.6,30.16,SE,144,2.6,5.0,86,0.00,BKN,,0.00,9.0,WeatherDisplay:10.37,2013-02-18 06:30:00,
2013-02-18 07:35:00,32.3,28.9,30.16,SSE,165,3.8,5.0,87,0.00,BKN,,0.00,11.0,WeatherDisplay:10.37,2013-02-18 06:35:00,
2013-02-18 07:40:00,32.3,28.9,30.16,South,180,1.5,3.5,87,0.00,BKN,,0.00,12.0,WeatherDisplay:10.37,2013-02-18 06:40:00,
2013-02-18 07:45:00,32.3,28.9,30.16,SE,137,3.2,4.0,87,0.00,BKN,,0.00,14.0,WeatherDisplay:10.37,2013-02-18 06:45:00,
2013-02-18 07:50:00,32.2,28.8,30.16,South,181,1.2,3.5,87,0.00,BKN,,0.00,16.0,WeatherDisplay:10.37,2013-02-18 06:50:00,
2013-02-18 07:55:00,32.3,28.9,30.16,SE,145,0.5,3.5,87,0.00,BKN,,0.00,18.0,WeatherDisplay:10.37,2013-02-18 06:55:00,
2013-02-18 08:00:00,32.2,28.8,30.16,ESE,117,2.5,4.6,87,0.00,BKN,,0.00,21.0,WeatherDisplay:10.37,2013-02-18 07:00:00,
2013-02-18 08:05:00,32.2,28.8,30.16,SSE,148,4.0,6.0,87,0.00,BKN,,0.00,23.0,WeatherDisplay:10.37,2013-02-18 07:05:00,
2013-02-18 08:10:00,32.2,28.8,30.16,SE,145,2.4,5.8,87,0.00,BKN,,0.00,23.0,WeatherDisplay:10.37,2013-02-18 07:10:00,
2013-02-18 08:15:00,32.2,29.0,30.16,SSE,155,2.4,4.6,88,0.00,BKN,,0.00,26.0,WeatherDisplay:10.37,2013-02-18 07:15:00,
2013-02-18 08:20:00,32.2,29.0,30.16,SSE,163,2.6,5.0,88,0.00,BKN,,0.00,26.0,WeatherDisplay:10.37,2013-02-18 07:20:00,
2013-02-18 08:25:00,32.2,29.0,30.16,SSE,153,3.4,6.0,88,0.00,BKN,,0.00,26.0,WeatherDisplay:10.37,2013-02-18 07:25:00,
2013-02-18 08:30:00,32.2,29.0,30.16,South,173,2.0,3.5,88,0.00,BKN,,0.00,28.0,WeatherDisplay:10.37,2013-02-18 07:30:00,
2013-02-18 08:35:00,32.2,29.0,30.16,SE,146,3.1,5.0,88,0.00,BKN,,0.00,28.0,WeatherDisplay:10.37,2013-02-18 07:35:00,
2013-02-18 08:40:00,32.3,29.1,30.16,SSW,194,1.3,4.6,88,0.00,BKN,,0.00,30.0,WeatherDisplay:10.37,2013-02-18 07:40:00,
2013-02-18 08:45:00,32.3,29.1,30.16,SSE,165,2.7,4.0,88,0.00,BKN,,0.00,30.0,WeatherDisplay:10.37,2013-02-18 07:45:00,
2013-02-18 08:50:00,32.3,29.1,30.16,South,181,0.8,3.0,88,0.00,BKN,,0.00,32.0,WeatherDisplay:10.37,2013-02-18 07:50:00,
2013-02-18 08:55:00,32.3,29.1,30.16,SSE,157,2.7,4.0,88,0.00,BKN,,0.00,33.0,WeatherDisplay:10.37,2013-02-18 07:55:00,
2013-02-18 09:00:00,32.4,29.2,30.16,SSE,159,1.9,3.5,88,0.00,BKN,,0.00,33.0,WeatherDisplay:10.37,2013-02-18 08:00:00,
2013-02-18 09:05:00,32.5,29.3,30.16,SSE,156,2.0,4.0,88,0.00,BKN,,0.00,33.0,WeatherDisplay:10.37,2013-02-18 08:05:00,
2013-02-18 09:10:00,32.5,29.1,30.16,SSE,150,3.0,4.0,87,0.00,BKN,,0.00,37.0,WeatherDisplay:10.37,2013-02-18 08:10:00,
2013-02-18 09:15:00,32.5,29.1,30.16,SSE,161,2.6,4.0,87,0.00,BKN,,0.00,40.0,WeatherDisplay:10.37,2013-02-18 08:15:00,
2013-02-18 09:21:00,32.5,29.1,30.16,South,179,3.0,4.6,87,0.00,BKN,,0.00,44.0,WeatherDisplay:10.37,2013-02-18 08:21:00,
2013-02-18 09:26:00,32.5,29.1,30.16,SE,142,1.1,3.5,87,0.00,BKN,,0.00,47.0,WeatherDisplay:10.37,2013-02-18 08:26:00,
2013-02-18 09:31:00,32.6,29.2,30.16,South,181,2.4,3.5,87,0.00,BKN,,0.00,49.0,WeatherDisplay:10.37,2013-02-18 08:31:00,
2013-02-18 09:36:00,32.6,29.2,30.16,SSE,164,4.0,5.0,87,0.00,BKN,,0.00,49.0,WeatherDisplay:10.37,2013-02-18 08:36:00,
2013-02-18 09:42:00,32.6,29.2,30.16,South,173,4.1,5.8,87,0.00,BKN,,0.00,51.0,WeatherDisplay:10.37,2013-02-18 08:42:00,
2013-02-18 09:47:00,32.7,29.3,30.16,South,181,3.2,5.8,87,0.00,BKN,,0.00,54.0,WeatherDisplay:10.37,2013-02-18 08:47:00,
2013-02-18 09:52:00,32.7,29.3,30.16,SE,142,1.3,3.5,87,0.00,BKN,,0.00,62.0,WeatherDisplay:10.37,2013-02-18 08:52:00,
2013-02-18 09:57:00,32.8,29.4,30.16,South,169,1.5,5.0,87,0.00,BKN,,0.00,63.0,WeatherDisplay:10.37,2013-02-18 08:57:00,
2013-02-18 10:02:00,32.8,29.4,30.16,SSW,196,2.5,3.5,87,0.00,BKN,,0.00,70.0,WeatherDisplay:10.37,2013-02-18 09:02:00,
2013-02-18 10:07:00,32.9,29.5,30.16,South,180,1.7,3.5,87,0.00,BKN,,0.00,72.0,WeatherDisplay:10.37,2013-02-18 09:07:00,
2013-02-18 10:12:00,33.0,29.6,30.16,South,184,2.6,5.8,87,0.00,BKN,,0.00,72.0,WeatherDisplay:10.37,2013-02-18 09:12:00,
2013-02-18 10:17:00,33.1,29.7,30.16,SSW,201,2.3,4.0,87,0.00,BKN,,0.00,69.0,WeatherDisplay:10.37,2013-02-18 09:17:00,
2013-02-18 10:22:00,33.1,29.7,30.16,South,173,3.2,5.0,87,0.00,BKN,,0.00,77.0,WeatherDisplay:10.37,2013-02-18 09:22:00,
2013-02-18 10:27:00,33.2,29.8,30.16,SSE,161,2.8,5.0,87,0.00,BKN,,0.00,76.0,WeatherDisplay:10.37,2013-02-18 09:27:00,
2013-02-18 10:32:00,33.3,29.8,30.16,SSE,166,1.0,3.5,87,0.00,BKN,,0.00,74.0,WeatherDisplay:10.37,2013-02-18 09:32:00,
2013-02-18 10:37:00,33.4,29.9,30.16,South,180,1.9,3.5,87,0.00,BKN,,0.00,70.0,WeatherDisplay:10.37,2013-02-18 09:37:00,
2013-02-18 10:42:00,33.5,30.0,30.16,SSE,157,3.9,6.0,87,0.00,BKN,,0.00,77.0,WeatherDisplay:10.37,2013-02-18 09:42:00,
2013-02-18 10:47:00,33.6,30.1,30.16,South,182,0.5,2.3,87,0.00,BKN,,0.00,86.0,WeatherDisplay:10.37,2013-02-18 09:47:00,
2013-02-18 10:52:00,33.6,30.1,30.16,SSW,197,0.8,2.0,87,0.00,BKN,,0.00,97.0,WeatherDisplay:10.37,2013-02-18 09:52:00,
2013-02-18 10:57:00,33.7,30.2,30.16,SSE,167,0.6,3.0,87,0.00,BKN,,0.00,100.0,WeatherDisplay:10.37,2013-02-18 09:57:00,
2013-02-18 11:02:00,33.8,30.1,30.16,SW,217,0.1,4.6,86,0.00,BKN,,0.00,105.0,WeatherDisplay:10.37,2013-02-18 10:02:00,
2013-02-18 11:07:00,33.8,30.3,30.16,SSW,209,2.5,4.0,87,0.00,BKN,,0.00,102.0,WeatherDisplay:10.37,2013-02-18 10:07:00,
2013-02-18 11:12:00,34.0,30.5,30.16,South,178,2.0,3.5,87,0.00,BKN,,0.00,102.0,WeatherDisplay:10.37,2013-02-18 10:12:00,
2013-02-18 11:17:00,34.1,30.6,30.16,South,169,0.7,3.5,87,0.00,BKN,,0.00,93.0,WeatherDisplay:10.37,2013-02-18 10:17:00,
2013-02-18 11:22:00,34.2,30.4,30.16,South,185,1.3,3.5,86,0.00,BKN,,0.00,95.0,WeatherDisplay:10.37,2013-02-18 10:22:00,
2013-02-18 11:27:00,34.2,30.4,30.16,South,182,0.5,2.3,86,0.00,BKN,,0.00,104.0,WeatherDisplay:10.37,2013-02-18 10:27:00,
2013-02-18 11:32:00,34.3,30.5,30.16,South,181,0.9,2.3,86,0.00,BKN,,0.00,90.0,WeatherDisplay:10.37,2013-02-18 10:32:00,
2013-02-18 11:37:00,34.4,30.6,30.16,South,175,1.4,2.3,86,0.00,BKN,,0.00,81.0,WeatherDisplay:10.37,2013-02-18 10:37:00,
2013-02-18 11:42:00,34.4,30.6,30.16,SSW,192,0.2,1.1,86,0.00,BKN,,0.00,88.0,WeatherDisplay:10.37,2013-02-18 10:42:00,
2013-02-18 11:47:00,34.5,30.7,30.16,SSW,193,0.7,3.5,86,0.00,BKN,,0.00,95.0,WeatherDisplay:10.37,2013-02-18 10:47:00,
2013-02-18 11:52:00,34.7,30.9,30.15,SSW,212,1.8,3.0,86,0.00,BKN,,0.00,98.0,WeatherDisplay:10.37,2013-02-18 10:52:00,
2013-02-18 11:57:00,34.8,31.0,30.15,WSW,246,0.1,2.3,86,0.00,BKN,,0.00,97.0,WeatherDisplay:10.37,2013-02-18 10:57:00,
2013-02-18 12:02:00,34.9,31.1,30.15,SSW,197,3.1,4.0,86,0.00,BKN,,0.00,90.0,WeatherDisplay:10.37,2013-02-18 11:02:00,
2013-02-18 12:08:00,34.9,30.8,30.15,South,182,0.9,3.5,85,0.00,BKN,,0.00,88.0,WeatherDisplay:10.37,2013-02-18 11:08:00,
2013-02-18 12:13:00,34.9,30.8,30.15,South,174,0.9,4.0,85,0.00,BKN,,0.00,81.0,WeatherDisplay:10.37,2013-02-18 11:13:00,
2013-02-18 12:19:00,35.0,30.9,30.15,South,169,1.3,3.5,85,0.00,BKN,,0.00,90.0,WeatherDisplay:10.37,2013-02-18 11:19:00,
2013-02-18 12:24:00,35.1,31.0,30.15,South,174,3.4,5.0,85,0.00,BKN,,0.00,100.0,WeatherDisplay:10.37,2013-02-18 11:24:00,
2013-02-18 12:29:00,35.2,31.1,30.15,South,186,0.6,2.3,85,0.00,BKN,,0.00,102.0,WeatherDisplay:10.37,2013-02-18 11:29:00,
2013-02-18 12:34:00,35.3,31.2,30.15,South,188,0.6,3.5,85,0.00,BKN,,0.00,98.0,WeatherDisplay:10.37,2013-02-18 11:34:00,
2013-02-18 12:39:00,35.4,31.3,30.15,South,189,0.3,2.3,85,0.00,BKN,,0.00,91.0,WeatherDisplay:10.37,2013-02-18 11:39:00,
2013-02-18 12:44:00,35.5,31.4,30.14,South,182,0.1,3.5,85,0.00,BKN,,0.00,97.0,WeatherDisplay:10.37,2013-02-18 11:44:00,
2013-02-18 12:49:00,35.6,31.5,30.14,SSW,204,0.0,0.0,85,0.00,BKN,,0.00,107.0,WeatherDisplay:10.37,2013-02-18 11:49:00,
2013-02-18 12:54:00,35.7,31.3,30.14,SSW,202,1.1,2.3,84,0.00,BKN,,0.00,121.0,WeatherDisplay:10.37,2013-02-18 11:54:00,
2013-02-18 12:59:00,35.8,31.4,30.14,South,179,0.0,1.1,84,0.00,BKN,,0.00,105.0,WeatherDisplay:10.37,2013-02-18 11:59:00,
2013-02-18 13:04:00,35.9,31.5,30.14,South,178,0.2,2.3,84,0.00,BKN,,0.00,91.0,WeatherDisplay:10.37,2013-02-18 12:04:00,
2013-02-18 13:09:00,36.0,31.6,30.14,South,178,0.5,3.5,84,0.00,BKN,,0.00,98.0,WeatherDisplay:10.37,2013-02-18 12:09:00,
2013-02-18 13:14:00,36.1,31.7,30.14,South,178,0.0,1.1,84,0.00,BKN,,0.00,104.0,WeatherDisplay:10.37,2013-02-18 12:14:00,
2013-02-18 13:19:00,36.2,31.5,30.14,South,178,0.1,2.3,83,0.00,BKN,,0.00,95.0,WeatherDisplay:10.37,2013-02-18 12:19:00,
2013-02-18 13:24:00,36.2,31.5,30.14,South,175,0.8,2.3,83,0.00,BKN,,0.00,105.0,WeatherDisplay:10.37,2013-02-18 12:24:00,
2013-02-18 13:29:00,36.3,31.6,30.14,SSW,209,0.0,3.5,83,0.00,BKN,,0.00,113.0,WeatherDisplay:10.37,2013-02-18 12:29:00,
2013-02-18 13:34:00,36.4,31.7,30.13,SSW,202,1.9,3.5,83,0.00,BKN,,0.00,127.0,WeatherDisplay:10.37,2013-02-18 12:34:00,
2013-02-18 13:39:00,36.5,31.8,30.13,SSW,202,1.3,2.3,83,0.00,BKN,,0.00,111.0,WeatherDisplay:10.37,2013-02-18 12:39:00,
2013-02-18 13:44:00,36.7,32.0,30.13,SSW,211,0.0,3.5,83,0.00,BKN,,0.00,109.0,WeatherDisplay:10.37,2013-02-18 12:44:00,
2013-02-18 13:49:00,36.8,31.8,30.13,SSW,211,0.0,0.0,82,0.00,BKN,,0.00,121.0,WeatherDisplay:10.37,2013-02-18 12:49:00,
2013-02-18 13:54:00,36.9,31.9,30.13,SSW,211,0.0,0.0,82,0.00,BKN,,0.00,148.0,WeatherDisplay:10.37,2013-02-18 12:54:00,
2013-02-18 13:59:00,37.1,32.1,30.13,SSW,211,0.0,0.0,82,0.00,BKN,,0.00,174.0,WeatherDisplay:10.37,2013-02-18 12:59:00,
2013-02-18 14:04:00,37.2,31.9,30.13,WNW,292,0.5,2.0,81,0.00,SCT,,0.00,216.0,WeatherDisplay:10.37,2013-02-18 13:04:00,
2013-02-18 14:09:00,37.5,32.2,30.12,WNW,292,2.1,3.5,81,0.00,SCT,,0.00,246.0,WeatherDisplay:10.37,2013-02-18 13:09:00,
2013-02-18 14:14:00,37.6,32.0,30.12,WNW,296,1.0,3.5,80,0.00,FEW,,0.00,227.0,WeatherDisplay:10.37,2013-02-18 13:14:00,
2013-02-18 14:19:00,38.0,33.0,30.12,WSW,244,1.5,2.3,82,0.00,FEW,,0.00,206.0,WeatherDisplay:10.37,2013-02-18 13:19:00,
2013-02-18 14:24:00,38.2,32.6,30.12,WNW,299,2.6,5.8,80,0.00,FEW,,0.00,158.0,WeatherDisplay:10.37,2013-02-18 13:24:00,
2013-02-18 14:29:00,38.2,32.3,30.12,WNW,299,0.3,2.3,79,0.00,SCT,,0.00,127.0,WeatherDisplay:10.37,2013-02-18 13:29:00,
2013-02-18 14:34:00,38.1,32.2,30.12,WNW,298,2.0,4.0,79,0.00,SCT,,0.00,95.0,WeatherDisplay:10.37,2013-02-18 13:34:00,
2013-02-18 14:39:00,38.1,32.2,30.12,WNW,298,0.3,2.3,79,0.00,BKN,,0.00,88.0,WeatherDisplay:10.37,2013-02-18 13:39:00,
2013-02-18 14:44:00,38.1,32.2,30.12,WNW,298,0.0,0.0,79,0.00,BKN,,0.00,81.0,WeatherDisplay:10.37,2013-02-18 13:44:00,
2013-02-18 14:49:00,38.1,32.5,30.12,WNW,299,1.2,3.0,80,0.00,BKN,,0.00,95.0,WeatherDisplay:10.37,2013-02-18 13:49:00,
2013-02-18 14:54:00,38.1,32.5,30.12,WNW,299,0.0,1.1,80,0.00,BKN,,0.00,86.0,WeatherDisplay:10.37,2013-02-18 13:54:00,
2013-02-18 14:59:00,38.1,32.5,30.12,WNW,299,2.2,3.0,80,0.00,BKN,,0.00,69.0,WeatherDisplay:10.37,2013-02-18 13:59:00,
2013-02-18 15:04:00,38.1,32.5,30.12,WNW,298,0.0,2.3,80,0.00,BKN,,0.00,63.0,WeatherDisplay:10.37,2013-02-18 14:04:00,
2013-02-18 15:09:00,38.0,32.4,30.11,WNW,299,0.0,2.3,80,0.00,BKN,,0.00,56.0,WeatherDisplay:10.37,2013-02-18 14:09:00,
2013-02-18 15:14:00,37.9,32.3,30.11,WNW,299,0.1,1.1,80,0.00,BKN,,0.00,51.0,WeatherDisplay:10.37,2013-02-18 14:14:00,
2013-02-18 15:19:00,37.8,32.2,30.11,WNW,299,0.3,2.3,80,0.00,BKN,,0.00,54.0,WeatherDisplay:10.37,2013-02-18 14:19:00,
2013-02-18 15:24:00,37.8,32.2,30.11,WNW,299,0.0,0.0,80,0.00,BKN,,0.00,62.0,WeatherDisplay:10.37,2013-02-18 14:24:00,
2013-02-18 15:29:00,37.8,32.2,30.11,WNW,298,1.2,3.5,80,0.00,BKN,,0.00,58.0,WeatherDisplay:10.37,2013-02-18 14:29:00,
2013-02-18 15:34:00,37.8,32.2,30.11,WNW,299,0.3,2.3,80,0.00,BKN,,0.00,54.0,WeatherDisplay:10.37,2013-02-18 14:34:00,
2013-02-18 15:39:00,37.8,32.2,30.11,WNW,299,0.5,3.5,80,0.00,BKN,,0.00,56.0,WeatherDisplay:10.37,2013-02-18 14:39:00,
2013-02-18 15:44:00,37.7,32.1,30.11,WNW,298,1.3,2.3,80,0.00,BKN,,0.00,63.0,WeatherDisplay:10.37,2013-02-18 14:44:00,
2013-02-18 15:49:00,37.7,32.4,30.11,WNW,299,0.2,1.1,81,0.00,SCT,,0.00,74.0,WeatherDisplay:10.37,2013-02-18 14:49:00,
2013-02-18 15:54:00,37.8,32.5,30.11,WNW,298,0.0,0.0,81,0.00,SCT,,0.00,79.0,WeatherDisplay:10.37,2013-02-18 14:54:00,
2013-02-18 15:59:00,37.8,32.2,30.11,WNW,299,0.0,0.0,80,0.00,SCT,,0.00,81.0,WeatherDisplay:10.37,2013-02-18 14:59:00,
2013-02-18 16:04:00,37.8,32.5,30.11,WNW,299,0.2,1.1,81,0.00,SCT,,0.00,67.0,WeatherDisplay:10.37,2013-02-18 15:04:00,
2013-02-18 16:09:00,37.7,32.4,30.11,WNW,299,0.4,2.3,81,0.00,SCT,,0.00,56.0,WeatherDisplay:10.37,2013-02-18 15:09:00,
2013-02-18 16:14:00,37.7,32.4,30.11,WNW,298,0.0,1.1,81,0.00,SCT,,0.00,63.0,WeatherDisplay:10.37,2013-02-18 15:14:00,
2013-02-18 16:19:00,37.7,32.4,30.10,NNE,24,0.9,2.0,81,0.00,SCT,,0.00,69.0,WeatherDisplay:10.37,2013-02-18 15:19:00,
2013-02-18 16:24:00,37.7,32.4,30.11,NNE,33,0.0,0.0,81,0.00,SCT,,0.00,53.0,WeatherDisplay:10.37,2013-02-18 15:24:00,
2013-02-18 16:29:00,37.6,32.3,30.11,NNE,33,0.0,1.1,81,0.00,SCT,,0.00,42.0,WeatherDisplay:10.37,2013-02-18 15:29:00,
2013-02-18 16:34:00,37.6,32.3,30.10,NNE,33,0.0,1.1,81,0.00,SCT,,0.00,35.0,WeatherDisplay:10.37,2013-02-18 15:34:00,
2013-02-18 16:39:00,37.5,32.2,30.10,NNE,33,0.0,0.0,81,0.00,SCT,,0.00,26.0,WeatherDisplay:10.37,2013-02-18 15:39:00,
2013-02-18 16:44:00,37.5,32.2,30.10,NNE,33,0.2,1.1,81,0.00,SCT,,0.00,18.0,WeatherDisplay:10.37,2013-02-18 15:44:00,
2013-02-18 16:49:00,37.4,32.4,30.10,NNE,33,0.4,2.3,82,0.00,SCT,,0.00,11.0,WeatherDisplay:10.37,2013-02-18 15:49:00,
2013-02-18 16:54:00,37.3,32.3,30.10,NNE,32,0.0,3.5,82,0.00,SCT,,0.00,7.0,WeatherDisplay:10.37,2013-02-18 15:54:00,
2013-02-18 16:59:00,37.2,32.2,30.10,NNE,32,0.0,1.1,82,0.00,SCT,,0.00,5.0,WeatherDisplay:10.37,2013-02-18 15:59:00,
2013-02-18 17:04:00,37.1,32.1,30.10,NNE,33,0.0,1.1,82,0.00,SCT,,0.00,0.0,WeatherDisplay:10.37,2013-02-18 16:04:00,
2013-02-18 17:09:00,36.9,32.2,30.10,NE,49,0.5,3.5,83,0.00,SCT,,0.00,0.0,WeatherDisplay:10.37,2013-02-18 16:09:00,
2013-02-18 17:14:00,36.8,32.1,30.10,NE,49,0.2,2.0,83,0.00,SCT,,0.00,0.0,WeatherDisplay:10.37,2013-02-18 16:14:00,
2013-02-18 17:19:00,36.7,32.0,30.10,NE,49,0.8,2.3,83,0.00,SCT,,0.00,0.0,WeatherDisplay:10.37,2013-02-18 16:19:00,
2013-02-18 17:24:00,36.5,32.1,30.11,NE,49,0.0,1.1,84,0.00,SCT,,0.00,0.0,WeatherDisplay:10.37,2013-02-18 16:24:00,
2013-02-18 17:29:00,36.3,31.9,30.11,ENE,76,0.1,2.3,84,0.00,SCT,,0.00,0.0,WeatherDisplay:10.37,2013-02-18 16:29:00,
2013-02-18 17:34:00,36.2,31.8,30.11,ENE,76,0.1,2.3,84,0.00,SCT,,0.00,0.0,WeatherDisplay:10.37,2013-02-18 16:34:00,
2013-02-18 17:39:00,36.1,31.7,30.11,ENE,76,0.0,1.1,84,0.00,SCT,,0.00,0.0,WeatherDisplay:10.37,2013-02-18 16:39:00,
2013-02-18 17:44:00,36.0,31.6,30.11,East,80,1.4,2.3,84,0.00,SCT,,0.00,0.0,WeatherDisplay:10.37,2013-02-18 16:44:00,
2013-02-18 17:49:00,35.8,31.7,30.11,ESE,117,1.3,2.3,85,0.00,SCT,,0.00,0.0,WeatherDisplay:10.37,2013-02-18 16:49:00,
2013-02-18 17:54:00,35.7,31.6,30.11,ESE,116,0.0,1.1,85,0.00,SCT,,0.00,0.0,WeatherDisplay:10.37,2013-02-18 16:54:00,
2013-02-18 17:59:00,35.6,31.5,30.11,ESE,116,0.0,0.0,85,0.00,SCT,,0.00,0.0,WeatherDisplay:10.37,2013-02-18 16:59:00,
2013-02-18 18:04:00,35.5,31.4,30.11,ESE,116,0.0,0.0,85,0.00,SCT,,0.00,0.0,WeatherDisplay:10.37,2013-02-18 17:04:00,
2013-02-18 18:09:00,35.4,31.3,30.11,ESE,116,0.0,0.0,85,0.00,SCT,,0.00,0.0,WeatherDisplay:10.37,2013-02-18 17:09:00,
2013-02-18 18:14:00,35.2,31.1,30.11,ESE,116,0.0,0.0,85,0.00,SCT,,0.00,0.0,WeatherDisplay:10.37,2013-02-18 17:14:00,
2013-02-18 18:19:00,35.1,31.0,30.11,ESE,116,0.0,0.0,85,0.00,SCT,,0.00,0.0,WeatherDisplay:10.37,2013-02-18 17:19:00,
2013-02-18 18:24:00,34.9,30.8,30.11,ESE,116,0.0,0.0,85,0.00,SCT,,0.00,0.0,WeatherDisplay:10.37,2013-02-18 17:24:00,
2013-02-18 18:29:00,34.7,30.7,30.11,ESE,117,0.0,0.0,85,0.00,SCT,,0.00,0.0,WeatherDisplay:10.37,2013-02-18 17:29:00,
2013-02-18 18:34:00,34.4,30.4,30.11,ESE,116,0.0,0.0,85,0.00,SCT,,0.00,0.0,WeatherDisplay:10.37,2013-02-18 17:34:00,
2013-02-18 18:39:00,34.2,30.4,30.11,ESE,116,0.0,0.0,86,0.00,SCT,,0.00,0.0,WeatherDisplay:10.37,2013-02-18 17:39:00,
2013-02-18 18:44:00,34.0,30.3,30.11,ESE,116,0.0,0.0,86,0.00,SCT,,0.00,0.0,WeatherDisplay:10.37,2013-02-18 17:44:00,
2013-02-18 18:49:00,33.7,30.0,30.11,ESE,116,0.0,0.0,86,0.00,SCT,,0.00,0.0,WeatherDisplay:10.37,2013-02-18 17:49:00,
2013-02-18 18:54:00,33.4,29.7,30.11,ESE,116,0.0,0.0,86,0.00,SCT,,0.00,0.0,WeatherDisplay:10.37,2013-02-18 17:54:00,
2013-02-18 18:59:00,33.1,29.4,30.11,ESE,116,0.0,0.0,86,0.00,SCT,,0.00,0.0,WeatherDisplay:10.37,2013-02-18 17:59:00,
2013-02-18 19:04:00,32.7,29.0,30.11,ESE,116,0.0,0.0,86,0.00,SCT,,0.00,0.0,WeatherDisplay:10.37,2013-02-18 18:04:00,
2013-02-18 19:09:00,32.4,28.7,30.11,ESE,116,0.0,0.0,86,0.00,SCT,,0.00,0.0,WeatherDisplay:10.37,2013-02-18 18:09:00,
2013-02-18 19:15:00,32.1,28.7,30.11,ESE,116,0.0,0.0,87,0.00,SCT,,0.00,0.0,WeatherDisplay:10.37,2013-02-18 18:15:00,
2013-02-18 19:20:00,31.8,28.4,30.11,ESE,116,0.0,0.0,87,0.00,SCT,,0.00,0.0,WeatherDisplay:10.37,2013-02-18 18:20:00,
2013-02-18 19:25:00,31.6,28.5,30.11,ESE,116,0.0,0.0,88,0.00,SCT,,0.00,0.0,WeatherDisplay:10.37,2013-02-18 18:25:00,
2013-02-18 19:30:00,31.4,28.3,30.11,ESE,116,0.0,0.0,88,0.00,SCT,,0.00,0.0,WeatherDisplay:10.37,2013-02-18 18:30:00,
2013-02-18 19:35:00,31.2,28.1,30.11,ESE,116,0.0,0.0,88,0.00,SCT,,0.00,0.0,WeatherDisplay:10.37,2013-02-18 18:35:00,
2013-02-18 19:41:00,31.1,28.0,30.11,ESE,116,0.0,0.0,88,0.00,SCT,,0.00,0.0,WeatherDisplay:10.37,2013-02-18 18:41:00,
2013-02-18 19:46:00,30.9,28.0,30.11,ESE,116,0.0,0.0,89,0.00,SCT,,0.00,0.0,WeatherDisplay:10.37,2013-02-18 18:46:00,
2013-02-18 19:51:00,30.8,27.9,30.10,ESE,116,0.0,0.0,89,0.00,SCT,,0.00,0.0,WeatherDisplay:10.37,2013-02-18 18:51:00,
2013-02-18 19:57:00,30.7,27.8,30.10,ESE,116,0.0,0.0,89,0.00,SCT,,0.00,0.0,WeatherDisplay:10.37,2013-02-18 18:57:00,
2013-02-18 20:02:00,30.5,27.6,30.10,ESE,116,0.0,0.0,89,0.00,SCT,,0.00,0.0,WeatherDisplay:10.37,2013-02-18 19:02:00,
2013-02-18 20:07:00,30.4,27.5,30.10,ESE,116,0.0,0.0,89,0.00,SCT,,0.00,0.0,WeatherDisplay:10.37,2013-02-18 19:07:00,
2013-02-18 20:13:00,30.2,27.6,30.10,ESE,116,0.0,0.0,90,0.00,SCT,,0.00,0.0,WeatherDisplay:10.37,2013-02-18 19:13:00,
2013-02-18 20:19:00,30.1,27.5,30.11,ESE,116,0.0,0.0,90,0.00,SCT,,0.00,0.0,WeatherDisplay:10.37,2013-02-18 19:19:00,
2013-02-18 20:24:00,30.0,27.4,30.11,ESE,116,0.0,0.0,90,0.00,SCT,,0.00,0.0,WeatherDisplay:10.37,2013-02-18 19:24:00,
2013-02-18 20:30:00,29.8,27.2,30.11,ESE,116,0.0,0.0,90,0.00,SCT,,0.00,0.0,WeatherDisplay:10.37,2013-02-18 19:30:00,
2013-02-18 20:36:00,29.7,27.1,30.11,ESE,116,0.0,0.0,90,0.00,SCT,,0.00,0.0,WeatherDisplay:10.37,2013-02-18 19:36:00,
2013-02-18 20:41:00,29.7,27.4,30.11,ESE,116,0.0,0.0,91,0.00,SCT,,0.00,0.0,WeatherDisplay:10.37,2013-02-18 19:41:00,
2013-02-18 20:46:00,29.6,27.3,30.10,ESE,116,0.0,0.0,91,0.00,SCT,,0.00,0.0,WeatherDisplay:10.37,2013-02-18 19:46:00,
2013-02-18 20:51:00,29.5,27.2,30.11,ESE,116,0.0,0.0,91,0.00,SCT,,0.00,0.0,WeatherDisplay:10.37,2013-02-18 19:51:00,
2013-02-18 20:56:00,29.4,27.1,30.10,ESE,116,0.0,0.0,91,0.00,SCT,,0.00,0.0,WeatherDisplay:10.37,2013-02-18 19:56:00,
2013-02-18 21:02:00,29.2,26.9,30.10,ESE,116,0.0,0.0,91,0.00,SCT,,0.00,0.0,WeatherDisplay:10.37,2013-02-18 20:02:00,
2013-02-18 21:07:00,29.1,26.8,30.11,ESE,116,0.0,0.0,91,0.00,SCT,,0.00,0.0,WeatherDisplay:10.37,2013-02-18 20:07:00,
2013-02-18 21:12:00,29.0,26.7,30.11,ESE,116,0.0,0.0,91,0.00,SCT,,0.00,0.0,WeatherDisplay:10.37,2013-02-18 20:12:00,
2013-02-18 21:17:00,28.9,26.6,30.11,ESE,116,0.0,0.0,91,0.00,SCT,,0.00,0.0,WeatherDisplay:10.37,2013-02-18 20:17:00,
2013-02-18 21:22:00,28.8,26.5,30.11,ESE,116,0.0,0.0,91,0.00,SCT,,0.00,0.0,WeatherDisplay:10.37,2013-02-18 20:22:00,
2013-02-18 21:27:00,28.7,26.4,30.11,ESE,116,0.0,1.1,91,0.00,SCT,,0.00,0.0,WeatherDisplay:10.37,2013-02-18 20:27:00,
2013-02-18 21:32:00,28.6,26.6,30.11,ESE,116,0.0,0.0,92,0.00,SCT,,0.00,0.0,WeatherDisplay:10.37,2013-02-18 20:32:00,
2013-02-18 21:37:00,28.6,26.6,30.10,ESE,116,0.4,1.1,92,0.00,SCT,,0.00,0.0,WeatherDisplay:10.37,2013-02-18 20:37:00,
2013-02-18 21:43:00,28.6,26.6,30.10,ESE,116,0.0,0.0,92,0.00,SCT,,0.00,0.0,WeatherDisplay:10.37,2013-02-18 20:43:00,
2013-02-18 21:48:00,28.6,26.6,30.10,ESE,116,0.0,0.0,92,0.00,SCT,,0.00,0.0,WeatherDisplay:10.37,2013-02-18 20:48:00,
2013-02-18 21:53:00,28.5,26.5,30.10,ESE,116,0.0,0.0,92,0.00,SCT,,0.00,0.0,WeatherDisplay:10.37,2013-02-18 20:53:00,
2013-02-18 21:58:00,28.5,26.5,30.10,ESE,116,0.0,0.0,92,0.00,SCT,,0.00,0.0,WeatherDisplay:10.37,2013-02-18 20:58:00,
2013-02-18 22:03:00,28.4,26.4,30.10,ESE,116,0.0,0.0,92,0.00,SCT,,0.00,0.0,WeatherDisplay:10.37,2013-02-18 21:03:00,
2013-02-18 22:08:00,28.4,26.4,30.10,ESE,116,0.0,0.0,92,0.00,SCT,,0.00,0.0,WeatherDisplay:10.37,2013-02-18 21:08:00,
2013-02-18 22:13:00,28.3,26.3,30.10,ESE,116,0.0,0.0,92,0.00,SCT,,0.00,0.0,WeatherDisplay:10.37,2013-02-18 21:13:00,
2013-02-18 22:18:00,28.2,26.2,30.10,ESE,116,0.0,0.0,92,0.00,SCT,,0.00,0.0,WeatherDisplay:10.37,2013-02-18 21:18:00,
2013-02-18 22:23:00,28.2,26.4,30.10,ESE,116,0.0,0.0,93,0.00,SCT,,0.00,0.0,WeatherDisplay:10.37,2013-02-18 21:23:00,
2013-02-18 22:28:00,28.2,26.4,30.10,ESE,116,0.0,0.0,93,0.00,SCT,,0.00,0.0,WeatherDisplay:10.37,2013-02-18 21:28:00,
2013-02-18 22:33:00,28.3,26.5,30.10,ESE,116,0.0,0.0,93,0.00,SCT,,0.00,0.0,WeatherDisplay:10.37,2013-02-18 21:33:00,
2013-02-18 22:38:00,28.4,26.6,30.10,ESE,116,0.0,0.0,93,0.00,SCT,,0.00,0.0,WeatherDisplay:10.37,2013-02-18 21:38:00,
2013-02-18 22:43:00,28.6,26.8,30.11,ESE,116,0.0,1.1,93,0.00,SCT,,0.00,0.0,WeatherDisplay:10.37,2013-02-18 21:43:00,
2013-02-18 22:48:00,28.7,26.9,30.11,ESE,117,0.0,0.0,93,0.00,SCT,,0.00,0.0,WeatherDisplay:10.37,2013-02-18 21:48:00,
2013-02-18 22:53:00,28.9,27.1,30.10,ESE,116,0.0,0.0,93,0.00,SCT,,0.00,0.0,WeatherDisplay:10.37,2013-02-18 21:53:00,
2013-02-18 22:58:00,29.0,27.2,30.10,ESE,116,0.0,2.3,93,0.00,SCT,,0.00,0.0,WeatherDisplay:10.37,2013-02-18 21:58:00,
2013-02-18 23:03:00,29.1,27.6,30.10,ESE,116,0.0,0.0,94,0.00,SCT,,0.00,0.0,WeatherDisplay:10.37,2013-02-18 22:03:00,
2013-02-18 23:08:00,29.3,27.8,30.11,ESE,116,0.0,0.0,94,0.00,SCT,,0.00,0.0,WeatherDisplay:10.37,2013-02-18 22:08:00,
2013-02-18 23:13:00,29.4,27.9,30.10,ESE,116,0.0,0.0,94,0.00,SCT,,0.00,0.0,WeatherDisplay:10.37,2013-02-18 22:13:00,
2013-02-18 23:18:00,29.5,28.0,30.10,ESE,116,0.0,1.1,94,0.00,SCT,,0.00,0.0,WeatherDisplay:10.37,2013-02-18 22:18:00,
2013-02-18 23:23:00,29.6,28.1,30.10,ESE,116,0.0,0.0,94,0.00,SCT,,0.00,0.0,WeatherDisplay:10.37,2013-02-18 22:23:00,
2013-02-18 23:28:00,29.7,28.2,30.10,ESE,116,0.0,0.0,94,0.00,SCT,,0.00,0.0,WeatherDisplay:10.37,2013-02-18 22:28:00,
2013-02-18 23:33:00,29.8,28.3,30.10,ESE,116,0.0,0.0,94,0.00,SCT,,0.00,0.0,WeatherDisplay:10.37,2013-02-18 22:33:00,
2013-02-18 23:38:00,29.9,28.4,30.10,ESE,116,0.0,0.0,94,0.00,SCT,,0.00,0.0,WeatherDisplay:10.37,2013-02-18 22:38:00,
2013-02-18 23:43:00,29.9,28.4,30.10,ESE,116,0.0,1.1,94,0.00,SCT,,0.00,0.0,WeatherDisplay:10.37,2013-02-18 22:43:00,
2013-02-18 23:48:00,30.0,28.5,30.10,ESE,116,1.1,3.5,94,0.00,SCT,,0.00,0.0,WeatherDisplay:10.37,2013-02-18 22:48:00,
2013-02-18 23:53:00,30.1,28.6,30.10,ESE,116,0.8,2.3,94,0.00,SCT,,0.00,0.0,WeatherDisplay:10.37,2013-02-18 22:53:00,
2013-02-18 23:58:00,30.2,28.7,30.10,ESE,116,0.2,2.3,94,0.00,SCT,,0.00,0.0,WeatherDisplay:10.37,2013-02-18 22:58:00,